• Join FlightAware (Why Join?)
  • Login
  • US Flag 
01:43AM EDT


 

Airport Tracker/Info


-or-


 

Live Flight TrackerFlight Track Log ✈ BOE4 ✈ 06-Feb-2012 ✈ KBFI - KBFI

Flight Track Log - Related Links

Times and Time Zones

All times are in EST time to prevent confusion due to time zone crossing. See the BOE4 flight status page for this flight to view local times or setup timezone preferences in your user account.

Time Position Orientation Groundspeed Altitude Reporting Facility
EST Latitude Longitude Course Direction KTS MPH feet Rate Location/Type
03:00PM 47.5489 -122.3200 332° Northwest 184 212 1,100  Level Seattle Center
03:00PM 47.5553 -122.3250 328° Northwest 188 216 1,600 1,200 Climbing Seattle Center
03:01PM 47.5892 -122.3567 288° West 233 268 2,100 960 Climbing Seattle Center
03:01PM 47.5967 -122.3917 239° Southwest 248 285 2,800 2,820 Climbing Seattle Center
03:02PM 47.5494 -122.5075 237° Southwest 272 313 6,700 3,360 Climbing Seattle Center
03:04PM 47.5067 -122.6044 237° Southwest 273 314 9,700 2,160 Climbing Seattle Center
03:05PM 47.4592 -122.7108 237° Southwest 318 366 11,200 1,800 Climbing Seattle Center
03:06PM 47.4056 -122.8325 237° Southwest 359 413 13,400 2,280 Climbing Seattle Center
03:07PM 47.3508 -122.9572 237° Southwest 365 420 15,900 2,100 Climbing Seattle Center
03:08PM 47.2936 -123.0850 237° Southwest 375 432 17,800 1,920 Climbing Seattle Center
03:09PM 47.2342 -123.2197 235° Southwest 391 450 19,900 1,980 Climbing Seattle Center
03:10PM 47.1581 -123.3786 187° South 399 459 21,900 1,740 Climbing Seattle Center
03:11PM 47.0494 -123.3989 174° South 407 468 23,500 2,520 Climbing Seattle Center
03:12PM 46.9447 -123.3836 178° South 382 440 27,100 2,160 Climbing Seattle Center
03:13PM 46.8439 -123.3783 175° South 371 427 28,000 420 Climbing Seattle Center
03:14PM 46.7347 -123.3642 177° South 393 452 28,000  Level Seattle Center
03:15PM 46.6169 -123.3550 175° South 436 502 28,000  Level Seattle Center
03:16PM 46.4644 -123.3375 175° South 463 533 28,000  Level Seattle Center
03:17PM 46.3322 -123.3203 176° South 476 548 28,000 -60 Level Seattle Center
03:18PM 46.2028 -123.3078 175° South 473 544 27,900  Descending Seattle Center
03:19PM 46.0894 -123.2939 176° South 416 479 28,000  Climbing Seattle Center
03:20PM 45.9797 -123.2819 175° South 402 463 27,900 -60 Descending Seattle Center
03:21PM 45.8842 -123.2703 175° South 353 406 27,900  Level Seattle Center
03:22PM 45.7867 -123.2592 176° South 351 404 28,000  Climbing Seattle Center
03:23PM 45.6897 -123.2483 175° South 351 404 28,000  Level Seattle Center
03:24PM 45.5919 -123.2369 175° South 352 405 28,000 -60 Level Seattle Center
03:25PM 45.4756 -123.2231 175° South 350 403 27,900 -60 Descending Seattle Center
03:26PM 45.3789 -123.2122 175° South 349 402 27,900  Level Seattle Center
03:27PM 45.2831 -123.2011 176° South 346 398 28,000  Climbing Seattle Center
03:28PM 45.1858 -123.1903 176° South 348 400 28,000  Level Seattle Center
03:29PM 45.0886 -123.1803 176° South 348 400 28,000  Level Seattle Center
03:30PM 44.9911 -123.1694 175° South 350 403 28,000 -60 Level Seattle Center
03:31PM 44.8933 -123.1581 176° South 349 402 27,900  Descending Seattle Center
03:32PM 44.7950 -123.1483 175° South 351 404 28,000  Climbing Seattle Center
03:33PM 44.6981 -123.1372 176° South 351 404 28,000  Level Seattle Center
03:34PM 44.6025 -123.1283 176° South 347 399 28,000  Level Seattle Center
03:35PM 44.5069 -123.1181 176° South 344 396 28,000  Level Seattle Center
03:36PM 44.4092 -123.1075 176° South 348 400 28,000  Level Seattle Center
03:37PM 44.3131 -123.0969 175° South 348 400 28,000  Level Seattle Center
03:38PM 44.1983 -123.0842 176° South 346 398 28,000  Level Seattle Center
03:39PM 44.1025 -123.0750 176° South 346 398 28,000  Level Seattle Center
03:40PM 44.0169 -123.0667 176° South 345 397 28,000  Level Seattle Center
03:41PM 43.9208 -123.0569 176° South 344 396 28,000  Level Seattle Center
03:42PM 43.8047 -123.0447 176° South 347 399 28,000  Level Seattle Center
03:43PM 43.7089 -123.0353 176° South 346 398 28,000  Level Seattle Center
03:44PM 43.6133 -123.0261 175° South 345 397 28,000  Level Seattle Center
03:45PM 43.5175 -123.0156 176° South 345 397 28,000  Level Seattle Center
03:46PM 43.4200 -123.0058 176° South 347 399 28,000  Level Seattle Center
03:47PM 43.3236 -122.9964 175° South 348 400 28,000 -300 Level Seattle Center
03:48PM 43.2267 -122.9853 176° South 349 402 27,500 -1,260 Descending Seattle Center
03:50PM 43.1294 -122.9764 176° South 348 400 25,500 -1,740 Descending Seattle Center
03:51PM 43.0347 -122.9669 176° South 343 395 24,000 -1,860 Descending Seattle Center
03:52PM 42.9239 -122.9561 176° South 335 386 21,700 -1,920 Descending Seattle Center
03:53PM 42.8336 -122.9467 176° South 328 377 20,100 -1,320 Descending Seattle Center
03:54PM 42.7456 -122.9381 176° South 319 367 19,000 -540 Descending Seattle Center
03:55PM 42.6589 -122.9289 176° South 310 357 19,000  Level Seattle Center
03:56PM 42.5728 -122.9208 176° South 310 357 19,000 -60 Level Seattle Center
03:57PM 42.4864 -122.9133 205° Southwest 311 358 18,900 -60 Descending Seattle Center
03:58PM 42.4075 -122.9628 207° Southwest 316 364 18,900  Level Seattle Center
03:59PM 42.3350 -123.0125 207° Southwest 298 343 19,000  Climbing Seattle Center
04:00PM 42.2633 -123.0611 206° Southwest 290 334 19,000  Level Seattle Center
04:01PM 42.1933 -123.1078 206° Southwest 286 329 19,000  Level Seattle Center
04:02PM 42.1236 -123.1544 208° Southwest 283 326 19,000  Level Seattle Center
04:03PM 42.0403 -123.2153 209° Southwest 283 326 19,000  Level Seattle Center
04:04PM 41.9703 -123.2672 211° Southwest 285 328 19,000  Level Seattle Center
04:05PM 41.9011 -123.3222 209° Southwest 286 329 19,000  Level Seattle Center
04:06PM 41.8328 -123.3739 210° Southwest 285 328 19,000  Level Seattle Center
04:07PM 41.7642 -123.4261 208° Southwest 284 327 19,000  Level Seattle Center
04:08PM 41.6953 -123.4758 211° Southwest 283 326 19,000  Level Seattle Center
04:09PM 41.6275 -123.5294 210° Southwest 282 325 19,000  Level Seattle Center
04:10PM 41.5531 -123.5864 210° Southwest 283 326 19,000  Level Seattle Center
04:11PM 41.4797 -123.6419 209° Southwest 295 339 19,000  Level Seattle Center
04:12PM 41.4053 -123.6967 208° Southwest 303 349 19,000  Level Seattle Center
04:13PM 41.3311 -123.7503 210° Southwest 304 350 19,000  Level Seattle Center
04:14PM 41.2597 -123.8042 209° Southwest 300 345 19,000  Level Seattle Center
04:15PM 41.1867 -123.8586 209° Southwest 262 302 19,000  Level Seattle Center
04:16PM 41.1236 -123.9047 209° Southwest 260 299 19,000  Level Seattle Center
04:17PM 41.0533 -123.9567 209° Southwest 285 328 19,000  Level Seattle Center
04:18PM 40.9817 -124.0097 209° Southwest 292 336 19,000  Level Seattle Center
04:19PM 40.9108 -124.0608 209° Southwest 293 337 19,000  Level Seattle Center
04:20PM 40.8400 -124.1125 209° Southwest 292 336 19,000  Level Seattle Center
04:21PM 40.7675 -124.1650 209° Southwest 296 341 19,000 -60 Level Seattle Center
04:22PM 40.6944 -124.2186 223° Southwest 300 345 18,900  Descending Seattle Center
04:23PM 40.6228 -124.3078 308° West 330 380 19,000  Climbing Seattle Center
04:24PM 40.6767 -124.3989 358° North 362 417 18,900  Descending Seattle Center
04:25PM 40.7753 -124.4031 27° Northeast 355 409 19,000  Climbing Seattle Center
04:26PM 40.8536 -124.3500 107° East 343 395 19,000  Level Seattle Center
04:27PM 40.8311 -124.2522 172° South 289 333 19,000  Level Seattle Center
04:28PM 40.7519 -124.2369 179° South 295 339 19,000  Level Seattle Center
04:29PM 40.6700 -124.2344 216° Southwest 294 338 19,000 -60 Level Seattle Center
04:30PM 40.6064 -124.2964 297° West 321 369 18,900  Descending Seattle Center
04:31PM 40.6458 -124.3989 357° North 355 409 19,000  Climbing Seattle Center
04:32PM 40.7642 -124.4075 21° North 354 407 19,000 -60 Level Seattle Center
04:33PM 40.8478 -124.3661 94° East 345 397 18,900 -60 Descending Seattle Center
04:34PM 40.8425 -124.2650 163° South 275 316 18,900  Level Seattle Center
04:36PM 40.7719 -124.2358 180° South 269 310 19,000  Climbing Seattle Center
04:37PM 40.6986 -124.2353 226° Southwest 266 306 19,000 -60 Level Seattle Center
04:39PM 40.6108 -124.3536 333° Northwest 305 351 18,900  Descending Seattle Center
04:40PM 40.6858 -124.4044 358° North 320 368 19,000  Climbing Seattle Center
04:41PM 40.7753 -124.4081 26° Northeast 321 369 18,900  Descending Seattle Center
04:42PM 40.8478 -124.3608 103° East 307 353 19,000  Climbing Seattle Center
04:43PM 40.8289 -124.2533 170° South 276 318 19,000  Level Seattle Center
04:44PM 40.7583 -124.2369 179° South 267 307 19,000  Level Seattle Center
04:45PM 40.6844 -124.2350 202° Southwest 266 306 19,000  Level Seattle Center
04:46PM 40.6161 -124.2711 273° West 290 334 19,000  Level Seattle Center
04:47PM 40.6194 -124.3728 343° North 311 358 19,000  Level Seattle Center
04:48PM 40.7025 -124.4056 359° North 319 367 19,000  Level Seattle Center
04:49PM 40.7914 -124.4083 39° Northeast 319 367 19,000  Level Seattle Center
04:50PM 40.8525 -124.3422 117° Southeast 300 345 19,000 -60 Level Seattle Center
04:51PM 40.8153 -124.2447 176° South 274 315 18,900  Descending Seattle Center
04:52PM 40.7439 -124.2375 178° South 265 305 19,000  Climbing Seattle Center
04:53PM 40.6681 -124.2342 215° Southwest 268 308 19,000  Level Seattle Center
04:54PM 40.6086 -124.2900 288° West 298 343 19,000  Level Seattle Center
04:55PM 40.6333 -124.3894 352° North 317 365 19,000  Level Seattle Center
04:56PM 40.7200 -124.4064 360° North 318 366 19,000 -60 Level Seattle Center
04:57PM 40.8094 -124.4069 55° Northeast 320 368 18,900  Descending Seattle Center
04:58PM 40.8542 -124.3222 124° Southeast 275 316 19,000  Climbing Seattle Center
04:59PM 40.8153 -124.2453 195° South 274 315 18,900 -660 Descending Seattle Center
05:00PM 40.7322 -124.2750 210° Southwest 295 339 17,700 -1,380 Descending Seattle Center
05:01PM 40.6658 -124.3250 210° Southwest 281 323 16,100 -1,320 Descending Seattle Center
05:02PM 40.6008 -124.3736 211° Southwest 273 314 15,000 -600 Descending Seattle Center
05:03PM 40.5400 -124.4217 217° Southwest 265 305 14,900  Descending Seattle Center
05:04PM 40.4825 -124.4786 210° Southwest 262 302 15,000 60 Climbing Seattle Center
05:05PM 40.4225 -124.5247 204° Southwest 257 296 15,100  Climbing Seattle Center
05:06PM 40.3458 -124.5697 207° Southwest 256 295 15,100  Level Seattle Center
05:07PM 40.2822 -124.6131 202° Southwest 257 296 15,100 -60 Level Seattle Center
05:08PM 40.2156 -124.6483 209° Southwest 258 297 15,000 -60 Descending Seattle Center
05:09PM 40.1536 -124.6933 220° Southwest 262 302 15,000  Level Seattle Center
05:10PM 40.0961 -124.7556 210° Southwest 267 307 15,100 180 Climbing Seattle Center
05:11PM 40.0325 -124.8036 210° Southwest 266 306 15,400 300 Climbing Seattle Center
05:12PM 39.9667 -124.8528 209° Southwest 270 311 15,800 240 Climbing Seattle Center
05:13PM 39.8978 -124.9033 210° Southwest 277 319 15,900 60 Climbing Seattle Center
05:14PM 39.8419 -124.9458 209° Southwest 279 321 16,000 60 Climbing Oakland Center
05:15PM 39.7758 -124.9933 209° Southwest 279 321 16,000  Level Oakland Center
05:16PM 39.7075 -125.0433 165° South 279 321 16,000 -840 Level Oakland Center
05:17PM 39.6497 -125.0239 52° Northeast 217 250 14,400 -1,200 Descending Oakland Center
05:18PM 39.7028 -124.9353 29° Northeast 129 148 13,600 -480 Descending Oakland Center
05:19PM 39.7989 -124.8650 28° Northeast 270 311 13,500 -120 Descending Oakland Center
05:21PM 39.9617 -124.7508 29° Northeast 412 474 13,400 -300 Descending Seattle Center
05:22PM 40.0650 -124.6764 25° Northeast 420 483 12,800 -540 Descending Seattle Center
05:23PM 40.1706 -124.6114 10° North 424 488 12,400 -480 Descending Seattle Center
05:24PM 40.2861 -124.5856 10° North 421 484 11,900 -480 Descending Seattle Center
05:25PM 40.4031 -124.5578 10° North 421 484 11,500 -240 Descending Seattle Center
05:26PM 40.5419 -124.5261 10° North 419 482 11,500  Level Seattle Center
05:27PM 40.6572 -124.5006 10° North 418 481 11,500  Level Seattle Center
05:28PM 40.7722 -124.4744 North 418 481 11,500  Level Seattle Center
05:29PM 40.8903 -124.4483 10° North 421 484 11,500  Level Seattle Center
05:30PM 41.0075 -124.4214 10° North 424 488 11,500  Level Seattle Center
05:31PM 41.1225 -124.3944 11° North 423 487 11,500  Level Seattle Center
05:32PM 41.2389 -124.3653 10° North 423 487 11,500  Level Seattle Center
05:33PM 41.3539 -124.3372 North 421 484 11,500  Level Seattle Center
05:34PM 41.4706 -124.3303 North 420 483 11,500  Level Seattle Center
05:35PM 41.5867 -124.3197 North 419 482 11,500  Level Seattle Center
05:36PM 41.7025 -124.3086 North 418 481 11,500  Level Seattle Center
05:37PM 41.8417 -124.2986 North 417 480 11,500  Level Seattle Center
05:38PM 41.9583 -124.2881 345° North 420 483 11,500 -900 Level Seattle Center
05:39PM 42.0692 -124.3292 329° Northwest 414 476 9,700 -1,200 Descending Seattle Center
05:40PM 42.1467 -124.3917 279° West 354 407 9,100 -1,200 Descending Seattle Center
05:41PM 42.1564 -124.4731 85° East 321 369 7,300 -1,920 Descending Seattle Center
05:42PM 42.1611 -124.3975 329° Northwest 288 331 5,300 -1,680 Descending Seattle Center
05:43PM 42.2272 -124.4519 355° North 291 335 3,900 -1,140 Descending Seattle Center
05:44PM 42.3011 -124.4606 357° North 269 310 3,000 -540 Descending Seattle Center
05:45PM 42.3736 -124.4653 358° North 265 305 2,900 -60 Descending Seattle Center
05:46PM 42.4503 -124.4697 354° North 272 313 2,900 -60 Level Seattle Center
05:47PM 42.5264 -124.4800 352° North 274 315 2,800  Descending Seattle Center
05:48PM 42.6283 -124.4986 348° North 269 310 3,000 120 Climbing Seattle Center
05:49PM 42.7017 -124.5203 345° North 268 308 3,100  Climbing Seattle Center
05:51PM 42.7742 -124.5464 348° North 269 310 3,000  Descending Seattle Center
05:52PM 42.8475 -124.5678 14° North 269 310 3,100 240 Climbing Seattle Center
05:53PM 42.9208 -124.5436 North 268 308 3,500 180 Climbing Seattle Center
05:54PM 42.9986 -124.5258 16° North 265 305 3,500 180 Level Seattle Center
06:01PM 43.5469 -124.3122 14° North 264 304 5,500 540 Climbing Seattle Center
06:02PM 43.6225 -124.2856 16° North 272 313 8,700 2,640 Climbing Seattle Center
06:03PM 43.7061 -124.2528 15° North 302 348 10,900 1,620 Climbing Seattle Center
06:04PM 43.8075 -124.2139 16° North 366 421 12,000 1,020 Climbing Seattle Center
06:05PM 43.9156 -124.1700 15° North 401 461 13,100 1,680 Climbing Seattle Center
06:06PM 44.0278 -124.1275 16° North 413 475 15,500 1,080 Climbing Seattle Center
06:07PM 44.1414 -124.0814 16° North 420 483 15,400  Descending Seattle Center
06:08PM 44.2550 -124.0372 16° North 423 487 15,500  Climbing Seattle Center
06:09PM 44.3689 -123.9919 16° North 425 489 15,500 -60 Level Seattle Center
06:10PM 44.5078 -123.9356 16° North 429 494 15,400 -60 Descending Seattle Center
06:12PM 44.6211 -123.8903 16° North 427 491 15,400  Level Seattle Center
06:13PM 44.7350 -123.8439 16° North 424 488 15,400  Level Seattle Center
06:14PM 44.8489 -123.7983 16° North 423 487 15,400  Level Seattle Center
06:15PM 44.9642 -123.7506 16° North 422 486 15,500  Climbing Seattle Center
06:16PM 45.0794 -123.7025 16° North 423 487 15,500  Level Seattle Center
06:17PM 45.1947 -123.6567 16° North 425 489 15,600 120 Climbing Seattle Center
06:18PM 45.3075 -123.6094 16° North 422 486 15,800 360 Climbing Seattle Center
06:19PM 45.4206 -123.5628 16° North 422 486 16,400 660 Climbing Seattle Center
06:20PM 45.5353 -123.5167 17° North 426 490 17,200 480 Climbing Seattle Center
06:21PM 45.6497 -123.4681 16° North 429 494 17,400 60 Climbing Seattle Center
06:22PM 45.7636 -123.4208 17° North 428 493 17,400  Level Seattle Center
06:23PM 45.8775 -123.3722 16° North 427 491 17,400  Level Seattle Center
06:24PM 45.9925 -123.3236 16° North 429 494 17,500 -300 Climbing Seattle Center
06:25PM 46.1306 -123.2681 17° North 431 496 16,900 -300 Descending Seattle Center
06:26PM 46.2436 -123.2183 16° North 429 494 16,900  Level Seattle Center
06:27PM 46.3564 -123.1711 17° North 426 490 17,000  Climbing Seattle Center
06:28PM 46.4683 -123.1217 16° North 426 490 16,900  Descending Seattle Center
06:29PM 46.5822 -123.0750 18° North 429 494 17,000  Climbing Seattle Center
06:30PM 46.6944 -123.0231 17° North 426 490 17,000  Level Seattle Center
06:31PM 46.8275 -122.9644 196° South 424 488 17,000 -120 Level Seattle Center
06:31PM 46.8064 -122.9733 16° North 425 489 16,900  Descending Seattle Center
06:32PM 46.9256 -122.9219 104° East 361 415 17,000 60 Climbing Seattle Center
06:32PM 46.9253 -122.9203 29° Northeast 365 420 17,000 -780 Level Seattle Center
06:33PM 47.0097 -122.8525 35° Northeast 357 411 16,200 -960 Descending Seattle Center
06:33PM 47.0189 -122.8431 42° Northeast 348 400 16,000 -1,380 Descending Seattle Center
06:34PM 47.0789 -122.7650 41° Northeast 331 381 14,800 -1,320 Descending Seattle Center
06:34PM 47.0875 -122.7542 41° Northeast 332 382 14,700 -1,380 Descending Seattle Center
06:35PM 47.1450 -122.6803 43° Northeast 321 369 13,400 -1,620 Descending Seattle Center
06:35PM 47.1561 -122.6653 41° Northeast 314 361 13,100 -1,680 Descending Seattle Center
06:36PM 47.2092 -122.5981 44° Northeast 313 360 11,700 -1,680 Descending Seattle Center
06:36PM 47.2214 -122.5808 40° Northeast 310 357 11,400 -1,680 Descending Seattle Center
06:37PM 47.2711 -122.5183 38° Northeast 302 348 10,000 -1,380 Descending Seattle Center
06:37PM 47.2875 -122.4992 18° North 294 338 9,900 -120 Descending Seattle Center
06:38PM 47.3558 -122.4669 357° North 301 346 9,900  Level Seattle Center
06:38PM 47.3639 -122.4675 North 304 350 9,900 -1,860 Level Seattle Center
06:39PM 47.4400 -122.4633 358° North 301 346 8,000 -2,460 Descending Seattle Center
06:39PM 47.4539 -122.4639 North 303 349 7,400 -2,580 Descending Seattle Center
06:40PM 47.5178 -122.4575 North 279 321 5,400 -2,520 Descending Seattle Center
06:40PM 47.5389 -122.4567 360° North 267 307 4,600 -3,060 Descending Seattle Center
06:41PM 47.5936 -122.4564 98° East 256 295 2,300 -1,320 Descending Seattle Center
06:43PM 47.5839 -122.3531 135° Southeast 150 173 1,100 -720 Descending Seattle Center
06:43PM 47.5811 -122.3489 149° Southeast 155 178 900 -900 Descending Seattle Center
06:44PM 47.5489 -122.3200 146° Southeast 171 197 200 15,780 Descending Seattle Center
06:44PM 47.5417 -122.3128 150° Southeast 156 180 17,000 14,820 Climbing Seattle Center
06:45PM 47.5033 -122.2794 150° Southeast 157 181 17,000  Level Seattle Center